createdAt,value
2018-12-02T00:00:48.400Z,46.80
2018-12-02T00:03:17.316Z,40.83
2018-12-02T00:05:46.252Z,38.97
2018-12-02T00:08:15.220Z,36.33
2018-12-02T00:10:44.153Z,59.30
2018-12-02T00:13:13.088Z,45.40
2018-12-02T00:15:42.605Z,42.33
2018-12-02T00:18:12.810Z,38.63
2018-12-02T00:20:42.017Z,40.90
2018-12-02T00:23:11.311Z,38.87
2018-12-02T00:25:40.601Z,40.47
2018-12-02T00:28:10.745Z,40.30
2018-12-02T00:30:40.634Z,41.73
2018-12-02T00:33:09.560Z,41.10
2018-12-02T00:35:38.479Z,40.73
2018-12-02T00:38:08.623Z,38.13
2018-12-02T00:40:37.907Z,42.00
2018-12-02T00:43:08.855Z,40.30
2018-12-02T00:45:38.344Z,41.37
2018-12-02T00:48:09.321Z,43.43
2018-12-02T00:50:38.320Z,44.07
2018-12-02T00:53:08.804Z,44.20
2018-12-02T00:55:43.348Z,45.00
2018-12-02T00:58:12.244Z,43.57
2018-12-02T01:00:41.170Z,43.97
2018-12-02T01:03:10.925Z,41.97
2018-12-02T01:05:39.834Z,39.87
2018-12-02T01:08:08.803Z,37.87
2018-12-02T01:10:38.100Z,39.03
2018-12-02T01:13:10.050Z,45.00
2018-12-02T01:15:40.173Z,49.53
2018-12-02T01:18:09.708Z,49.87
2018-12-02T01:20:39.797Z,43.87
2018-12-02T01:23:09.130Z,38.33
2018-12-02T01:25:38.436Z,33.97
2018-12-02T01:28:07.752Z,41.13
2018-12-02T01:30:36.676Z,39.40
2018-12-02T01:33:05.722Z,34.60
2018-12-02T01:35:34.918Z,29.03
2018-12-02T01:38:03.853Z,26.70
2018-12-02T01:40:32.859Z,29.13
2018-12-02T01:43:01.908Z,29.07
2018-12-02T01:45:30.822Z,27.77
2018-12-02T01:47:59.732Z,28.83
2018-12-02T01:50:28.785Z,29.57
2018-12-02T01:52:58.092Z,30.40
2018-12-02T01:55:27.020Z,31.63
2018-12-02T01:57:56.031Z,31.73
2018-12-02T02:00:26.656Z,32.90
2018-12-02T02:02:56.401Z,35.53
2018-12-02T02:05:26.144Z,35.83
2018-12-02T02:07:55.080Z,33.67
2018-12-02T02:17:15.393Z,29.67
2018-12-02T02:19:44.311Z,30.93
2018-12-02T02:22:13.271Z,31.17
2018-12-02T02:24:42.546Z,33.23
2018-12-02T02:27:11.606Z,34.03
2018-12-02T02:29:40.508Z,35.17
2018-12-02T02:32:09.440Z,34.70
2018-12-02T02:34:38.344Z,34.27
2018-12-02T02:37:14.097Z,35.37
2018-12-02T02:39:42.997Z,34.27
2018-12-02T02:42:11.925Z,34.50
2018-12-02T02:44:41.120Z,33.63
2018-12-02T02:47:10.048Z,35.33
2018-12-02T02:49:38.950Z,31.70
2018-12-02T02:52:08.096Z,32.30
2018-12-02T02:54:37.362Z,33.60
2018-12-02T02:57:06.614Z,35.80
2018-12-02T02:59:35.793Z,38.40
2018-12-02T03:02:05.412Z,39.20
2018-12-02T03:04:34.342Z,36.97
2018-12-02T03:07:03.300Z,38.27
2018-12-02T03:09:32.213Z,39.30
2018-12-02T03:12:01.129Z,38.10
2018-12-02T03:14:30.149Z,42.43
2018-12-02T03:16:59.056Z,48.53
2018-12-02T03:19:27.970Z,48.57
2018-12-02T03:21:57.137Z,54.37
2018-12-02T03:24:26.061Z,60.83
2018-12-02T03:26:54.982Z,64.43
2018-12-02T03:29:24.120Z,58.83
2018-12-02T03:31:53.077Z,57.93
2018-12-02T03:34:21.999Z,56.73
2018-12-02T03:36:51.194Z,57.47
2018-12-02T03:39:20.140Z,57.27
2018-12-02T03:41:49.054Z,52.20
2018-12-02T03:44:17.997Z,50.17
2018-12-02T03:46:46.920Z,46.63
2018-12-02T03:49:15.825Z,45.87
2018-12-02T03:51:44.917Z,44.50
2018-12-02T03:54:13.823Z,43.70
2018-12-02T03:56:47.555Z,40.37
2018-12-02T03:59:16.861Z,43.10
2018-12-02T04:01:46.136Z,42.93
2018-12-02T04:04:15.113Z,44.37
2018-12-02T04:06:44.027Z,36.47
2018-12-02T04:09:12.936Z,35.30
2018-12-02T04:11:41.909Z,32.20
2018-12-02T04:14:10.812Z,43.43
2018-12-02T04:16:39.717Z,46.43
2018-12-02T04:19:09.000Z,45.80
2018-12-02T04:21:37.943Z,48.03
2018-12-02T04:24:06.879Z,45.10
2018-12-02T04:26:36.089Z,47.13
2018-12-02T04:29:05.017Z,45.83
2018-12-02T04:31:33.944Z,46.83
2018-12-02T04:34:04.404Z,49.30
2018-12-02T04:36:33.319Z,52.53
2018-12-02T04:39:02.412Z,52.00
2018-12-02T04:41:31.364Z,44.77
2018-12-02T04:44:00.300Z,43.57
2018-12-02T04:46:29.218Z,43.03
2018-12-02T04:48:58.447Z,44.10
2018-12-02T04:51:27.353Z,41.93
2018-12-02T04:53:56.270Z,43.90
2018-12-02T04:56:25.248Z,41.87
2018-12-02T04:58:54.160Z,43.27
2018-12-02T05:01:23.055Z,40.70
2018-12-02T05:03:51.997Z,41.33
2018-12-02T05:06:20.904Z,41.87
2018-12-02T05:08:49.796Z,38.93
2018-12-02T05:11:18.845Z,41.70
2018-12-02T05:13:47.744Z,41.40
2018-12-02T05:16:16.697Z,41.47
2018-12-02T05:18:45.757Z,42.27
2018-12-02T05:21:14.672Z,38.63
2018-12-02T05:23:43.572Z,37.43
2018-12-02T05:26:12.821Z,36.67
2018-12-02T05:28:41.720Z,36.30
2018-12-02T05:31:10.636Z,37.00
2018-12-02T05:33:40.008Z,37.07
2018-12-02T05:36:08.912Z,38.33
2018-12-02T05:38:37.849Z,38.73
2018-12-02T05:41:07.095Z,38.80
2018-12-02T05:43:36.003Z,40.67
2018-12-02T05:46:04.928Z,40.33
2018-12-02T05:48:33.989Z,38.83
2018-12-02T05:51:02.908Z,40.17
2018-12-02T05:53:31.823Z,37.17
2018-12-02T05:56:00.800Z,37.60
2018-12-02T05:58:29.712Z,80.33
2018-12-02T06:00:58.624Z,71.73
2018-12-02T06:03:27.727Z,59.13
2018-12-02T06:05:56.633Z,35.97
2018-12-02T06:08:25.537Z,29.80
2018-12-02T06:10:54.695Z,32.23
2018-12-02T06:13:23.601Z,31.63
2018-12-02T06:15:52.506Z,27.57
2018-12-02T06:18:21.576Z,25.83
2018-12-02T06:20:50.484Z,24.63
2018-12-02T06:23:19.397Z,23.20
2018-12-02T06:25:48.668Z,21.97
2018-12-02T06:28:17.575Z,19.37
2018-12-02T06:30:46.476Z,18.03
2018-12-02T06:33:15.840Z,18.83
2018-12-02T06:35:44.774Z,20.07
2018-12-02T06:38:13.737Z,21.30
2018-12-02T06:40:43.028Z,19.53
2018-12-02T06:43:11.964Z,18.87
2018-12-02T06:45:40.904Z,17.27
2018-12-02T06:48:09.893Z,20.00
2018-12-02T06:50:38.808Z,20.50
2018-12-02T06:53:07.844Z,23.47
2018-12-02T06:55:47.223Z,24.77
2018-12-02T06:58:28.473Z,24.57
2018-12-02T07:01:12.620Z,25.63
2018-12-02T07:03:49.662Z,25.23
2018-12-02T07:06:19.313Z,27.27
2018-12-02T07:08:48.245Z,29.83
2018-12-02T07:11:17.173Z,26.27
2018-12-02T07:13:46.365Z,31.80
2018-12-02T07:16:15.287Z,33.77
2018-12-02T07:18:46.648Z,30.77
2018-12-02T07:21:22.687Z,21.80
2018-12-02T07:23:56.053Z,19.93
2018-12-02T07:26:29.341Z,18.27
2018-12-02T07:28:59.411Z,31.50
2018-12-02T07:31:28.545Z,27.73
2018-12-02T07:33:58.932Z,20.37
2018-12-02T07:36:27.888Z,33.97
2018-12-02T07:39:35.803Z,25.07
2018-12-02T07:42:04.894Z,43.33
2018-12-02T07:44:33.825Z,45.67
2018-12-02T07:47:02.837Z,34.50
2018-12-02T07:49:31.785Z,26.47
2018-12-02T07:52:00.754Z,47.10
2018-12-02T07:54:30.009Z,56.37
2018-12-02T07:56:58.962Z,52.20
2018-12-02T07:59:27.919Z,49.43
2018-12-02T08:01:57.071Z,36.80
2018-12-02T08:04:26.045Z,35.33
2018-12-02T08:06:54.989Z,28.57
2018-12-02T08:09:23.984Z,31.27
2018-12-02T08:11:52.921Z,35.73
2018-12-02T08:14:21.874Z,32.77
2018-12-02T08:16:51.029Z,47.33
2018-12-02T08:19:21.094Z,34.97
2018-12-02T08:21:50.854Z,44.67
2018-12-02T08:24:19.818Z,55.93
2018-12-02T08:26:48.775Z,53.93
2018-12-02T08:29:17.773Z,59.30
2018-12-02T08:31:46.717Z,60.07
2018-12-02T08:34:15.661Z,63.90
2018-12-02T08:36:45.520Z,61.23
2018-12-02T08:39:14.488Z,59.13
2018-12-02T08:41:43.466Z,61.40
2018-12-02T08:44:12.564Z,63.60
2018-12-02T08:46:41.504Z,58.33
2018-12-02T08:49:10.437Z,48.57
2018-12-02T08:51:39.521Z,48.30
2018-12-02T08:54:08.487Z,44.73
2018-12-02T08:56:37.429Z,44.13
2018-12-02T08:59:07.479Z,43.43
2018-12-02T09:01:36.385Z,44.83
2018-12-02T09:04:05.981Z,39.70
2018-12-02T09:06:35.225Z,38.03
2018-12-02T09:09:06.447Z,41.07
2018-12-02T09:11:36.241Z,41.70
2018-12-02T09:14:05.768Z,44.90
2018-12-02T09:16:34.669Z,47.70
2018-12-02T09:19:03.669Z,55.83
2018-12-02T09:21:32.557Z,67.17
2018-12-02T09:24:01.837Z,76.73
2018-12-02T09:26:30.949Z,66.63
2018-12-02T09:29:00.100Z,44.13
2018-12-02T09:31:29.103Z,47.70
2018-12-02T09:33:58.360Z,37.73
2018-12-02T09:36:27.501Z,38.37
2018-12-02T09:38:56.805Z,39.03
2018-12-02T09:41:26.300Z,40.60
2018-12-02T09:43:55.593Z,42.00
2018-12-02T09:46:24.803Z,45.47
2018-12-02T09:48:54.484Z,41.20
2018-12-02T09:51:23.609Z,42.30
2018-12-02T09:53:52.580Z,45.07
2018-12-02T09:56:21.911Z,41.17
2018-12-02T09:58:51.403Z,41.30
2018-12-02T10:01:20.608Z,36.43
2018-12-02T10:03:50.045Z,42.40
2018-12-02T10:06:19.314Z,38.23
2018-12-02T10:08:48.504Z,45.27
2018-12-02T10:11:17.745Z,41.40
2018-12-02T10:13:47.092Z,42.07
2018-12-02T10:16:17.312Z,40.50
2018-12-02T10:18:45.525Z,48.50
2018-12-02T10:21:14.437Z,34.93
2018-12-02T10:23:43.357Z,35.73
2018-12-02T10:26:12.841Z,50.03
2018-12-02T10:28:42.077Z,27.53
2018-12-02T10:31:11.289Z,25.90
2018-12-02T10:33:40.625Z,24.63
2018-12-02T10:36:09.781Z,25.00
2018-12-02T10:38:38.975Z,30.83
2018-12-02T10:41:08.222Z,30.50
2018-12-02T10:43:37.372Z,30.97
2018-12-02T10:46:06.772Z,29.87
2018-12-02T10:48:36.384Z,30.07
2018-12-02T10:51:05.779Z,28.57
2018-12-02T10:53:34.989Z,30.97
2018-12-02T10:56:04.449Z,29.10
2018-12-02T10:58:34.600Z,30.17
2018-12-02T11:01:09.467Z,29.50
2018-12-02T11:03:38.732Z,29.87
2018-12-02T11:06:07.950Z,32.17
2018-12-02T11:08:37.172Z,32.83
2018-12-02T11:11:06.932Z,33.63
2018-12-02T11:13:36.150Z,32.37
2018-12-02T11:16:05.685Z,32.73
2018-12-02T11:18:34.837Z,31.47
2018-12-02T11:21:04.136Z,34.53
2018-12-02T11:23:34.485Z,32.33
2018-12-02T11:26:02.833Z,30.43
2018-12-02T11:28:32.039Z,30.30
2018-12-02T11:31:01.514Z,29.40
2018-12-02T11:33:30.654Z,28.47
2018-12-02T11:35:59.736Z,26.63
2018-12-02T11:38:29.072Z,25.20
2018-12-02T11:40:58.324Z,28.60
2018-12-02T11:43:27.528Z,29.50
2018-12-02T11:45:56.948Z,26.10
2018-12-02T11:48:26.036Z,26.07
2018-12-02T11:50:55.733Z,25.43
2018-12-02T11:53:25.100Z,25.77
2018-12-02T11:55:54.440Z,24.77
2018-12-02T11:58:23.745Z,25.10
2018-12-02T12:00:53.089Z,26.10
2018-12-02T12:03:22.657Z,25.63
2018-12-02T12:05:51.752Z,25.40
2018-12-02T12:08:21.253Z,25.37
2018-12-02T12:10:50.549Z,27.73
2018-12-02T12:13:19.739Z,26.63
2018-12-02T12:15:49.224Z,26.27
2018-12-02T12:18:18.456Z,25.33
2018-12-02T12:20:47.545Z,27.27
2018-12-02T12:23:19.184Z,28.50
2018-12-02T12:25:48.097Z,25.57
2018-12-02T12:28:17.301Z,28.17
2018-12-02T12:30:46.507Z,25.10
2018-12-02T12:33:15.589Z,26.97
2018-12-02T12:35:50.075Z,26.57
2018-12-02T12:38:19.603Z,29.30
2018-12-02T12:40:50.329Z,29.50
2018-12-02T12:43:34.621Z,31.43
2018-12-02T12:46:04.700Z,31.77
2018-12-02T12:48:34.012Z,28.70
2018-12-02T12:51:03.305Z,32.53
2018-12-02T12:53:32.644Z,32.87
2018-12-02T12:56:01.819Z,30.20
2018-12-02T12:58:31.017Z,32.37
2018-12-02T13:01:00.228Z,32.83
2018-12-02T13:03:29.131Z,32.87
2018-12-02T13:05:59.013Z,32.20
2018-12-02T13:08:29.154Z,30.97
2018-12-02T13:10:58.332Z,28.77
2018-12-02T13:13:27.447Z,31.67
2018-12-02T13:15:57.137Z,30.90
2018-12-02T13:18:26.233Z,31.70
2018-12-02T13:20:56.245Z,29.53
2018-12-02T13:23:25.725Z,28.50
2018-12-02T13:25:54.864Z,32.03
2018-12-02T13:28:24.037Z,28.47
2018-12-02T13:30:53.268Z,30.60
2018-12-02T13:33:22.157Z,30.67
2018-12-02T13:35:51.529Z,28.07
2018-12-02T13:38:20.735Z,28.60
2018-12-02T13:40:49.633Z,27.50
2018-12-02T13:43:20.188Z,28.37
2018-12-02T13:45:50.232Z,25.07
2018-12-02T13:48:19.596Z,25.73
2018-12-02T13:50:48.526Z,25.83
2018-12-02T13:53:17.964Z,24.60
2018-12-02T13:55:46.880Z,23.47
2018-12-02T13:58:15.846Z,22.37
2018-12-02T14:00:44.996Z,22.43
2018-12-02T14:03:15.082Z,24.03
2018-12-02T14:05:46.072Z,26.60
2018-12-02T14:08:14.984Z,23.93
2018-12-02T14:10:44.594Z,24.60
2018-12-02T14:13:16.977Z,24.57
2018-12-02T14:15:58.760Z,23.90
2018-12-02T14:18:36.204Z,25.30
2018-12-02T14:21:05.564Z,23.80
2018-12-02T14:23:35.374Z,25.73
2018-12-02T14:26:07.766Z,26.47
2018-12-02T14:29:49.128Z,25.77
2018-12-02T14:32:19.018Z,25.63
2018-12-02T14:34:48.340Z,31.77
2018-12-02T14:37:17.648Z,25.80
2018-12-02T14:39:47.204Z,25.53
2018-12-02T14:42:16.452Z,26.37
2018-12-02T14:44:45.669Z,27.33
2018-12-02T14:47:15.213Z,25.47
2018-12-02T14:49:44.577Z,25.67
2018-12-02T14:52:13.802Z,25.93
2018-12-02T14:54:43.210Z,26.43
2018-12-02T14:57:12.473Z,24.73
2018-12-02T14:59:41.772Z,27.13
2018-12-02T15:02:12.630Z,26.80
2018-12-02T15:04:41.708Z,27.07
2018-12-02T15:07:11.009Z,28.17
2018-12-02T15:09:40.440Z,26.83
2018-12-02T15:12:10.473Z,26.37
2018-12-02T15:14:40.088Z,25.23
2018-12-02T15:17:09.251Z,27.30
2018-12-02T15:19:38.335Z,27.07
2018-12-02T15:22:07.594Z,25.80
2018-12-02T15:24:36.735Z,26.70
2018-12-02T15:27:06.714Z,27.70
2018-12-02T15:29:36.368Z,28.47
2018-12-02T15:32:05.746Z,46.93
2018-12-02T15:34:35.045Z,39.33
2018-12-02T15:37:04.389Z,42.60
2018-12-02T15:39:33.669Z,50.67
2018-12-02T15:42:02.757Z,79.03
2018-12-02T15:44:32.193Z,124.87
2018-12-02T15:47:01.374Z,97.03
2018-12-02T15:49:30.541Z,99.30
2018-12-02T15:51:59.984Z,92.03
2018-12-02T15:54:29.165Z,92.10
2018-12-02T15:56:58.357Z,92.37
2018-12-02T15:59:27.613Z,104.33
2018-12-02T16:01:56.757Z,124.10
2018-12-02T16:04:26.545Z,153.57
2018-12-02T16:06:55.873Z,144.40
2018-12-02T16:09:25.061Z,160.43
2018-12-02T16:11:53.976Z,181.90
2018-12-02T16:14:23.420Z,185.23
2018-12-02T16:16:53.048Z,214.30
2018-12-02T16:19:21.949Z,181.67
2018-12-02T16:21:51.354Z,181.77
2018-12-02T16:24:20.553Z,201.87
2018-12-02T16:26:49.737Z,226.63
2018-12-02T16:29:19.118Z,263.27
2018-12-02T16:31:48.257Z,325.30
2018-12-02T16:34:17.250Z,341.33
2018-12-02T16:36:46.695Z,371.33
2018-12-02T16:39:15.841Z,382.27
2018-12-02T16:41:45.021Z,397.57
2018-12-02T16:44:14.545Z,381.73
2018-12-02T16:46:47.559Z,423.10
2018-12-02T16:49:16.885Z,434.50
2018-12-02T16:51:46.035Z,437.60
2018-12-02T16:54:15.024Z,416.27
2018-12-02T16:56:44.359Z,374.63
2018-12-02T16:59:31.538Z,350.93
2018-12-02T17:02:05.273Z,347.00
2018-12-02T17:04:32.384Z,363.53
2018-12-02T17:07:01.604Z,354.93
2018-12-02T17:09:31.169Z,361.27
2018-12-02T17:12:00.409Z,348.10
2018-12-02T17:14:29.788Z,342.80
2018-12-02T17:16:59.920Z,337.00
2018-12-02T17:19:32.922Z,364.60
2018-12-02T17:22:02.517Z,386.00
2018-12-02T17:24:31.817Z,385.90
2018-12-02T17:27:01.008Z,373.87
2018-12-02T17:29:30.381Z,356.57
2018-12-02T17:32:02.669Z,353.63
2018-12-02T17:34:32.180Z,337.43
2018-12-02T17:37:01.469Z,336.53
2018-12-02T17:39:32.436Z,358.03
2018-12-02T17:42:03.575Z,348.10
2018-12-02T17:44:32.893Z,346.23
2018-12-02T17:47:02.253Z,335.67
2018-12-02T17:49:34.221Z,304.80
2018-12-02T17:52:03.577Z,282.20
2018-12-02T17:54:33.862Z,301.03
2018-12-02T17:57:04.166Z,215.80
2018-12-02T17:59:33.402Z,240.23
2018-12-02T18:02:04.693Z,145.80
2018-12-02T18:08:14.441Z,80.90
2018-12-02T18:10:43.780Z,64.67
2018-12-02T18:13:13.085Z,63.87
2018-12-02T18:15:42.544Z,75.93
2018-12-02T18:18:11.911Z,82.97
2018-12-02T18:20:41.046Z,110.07
2018-12-02T18:23:11.432Z,141.43
2018-12-02T18:25:40.616Z,152.20
2018-12-02T18:28:09.625Z,173.20
2018-12-02T18:30:38.864Z,215.67
2018-12-02T18:33:08.297Z,218.97
2018-12-02T18:35:40.425Z,222.83
2018-12-02T18:38:11.200Z,214.07
2018-12-02T18:40:42.188Z,205.97
2018-12-02T18:43:11.461Z,193.63
2018-12-02T18:45:40.660Z,195.63
2018-12-02T18:48:10.041Z,205.37
2018-12-02T18:50:41.697Z,211.33
2018-12-02T18:53:11.213Z,165.43
2018-12-02T18:55:40.285Z,164.10
2018-12-02T18:58:09.392Z,225.87
2018-12-02T19:00:43.596Z,234.07
2018-12-02T19:03:12.748Z,225.50
2018-12-02T19:05:42.113Z,218.27
2018-12-02T19:08:11.730Z,225.87
2018-12-02T19:10:41.032Z,287.60
2018-12-02T19:13:10.129Z,308.07
2018-12-02T19:15:39.660Z,306.40
2018-12-02T19:18:09.020Z,319.13
2018-12-02T19:20:38.314Z,307.40
2018-12-02T19:23:10.073Z,299.37
2018-12-02T19:25:39.792Z,255.83
2018-12-02T19:28:08.994Z,255.77
2018-12-02T19:30:38.351Z,205.13
2018-12-02T19:33:09.160Z,202.53
2018-12-02T19:35:38.696Z,194.00
2018-12-02T19:38:14.176Z,167.90
2018-12-02T19:40:43.515Z,151.93
2018-12-02T19:43:12.773Z,132.07
2018-12-02T19:45:42.001Z,139.70
2018-12-02T19:48:11.485Z,212.63
2018-12-02T19:50:41.617Z,154.43
2018-12-02T19:53:12.030Z,233.90
2018-12-02T19:55:41.314Z,188.87
2018-12-02T19:58:12.240Z,167.50
2018-12-02T20:00:42.353Z,195.47
2018-12-02T20:03:13.052Z,157.47
2018-12-02T20:05:42.304Z,129.90
2018-12-02T20:08:16.948Z,129.03
2018-12-02T20:10:50.601Z,129.63
2018-12-02T20:13:21.126Z,117.17
2018-12-02T20:15:56.597Z,106.70
2018-12-02T20:18:26.232Z,93.87
2018-12-02T20:20:59.024Z,84.40
2018-12-02T20:23:33.588Z,66.87
2018-12-02T20:26:03.612Z,57.07
2018-12-02T20:28:39.339Z,55.57
2018-12-02T20:31:11.904Z,44.83
2018-12-02T20:33:41.341Z,42.10
2018-12-02T20:36:10.650Z,45.27
2018-12-02T20:38:40.898Z,41.57
2018-12-02T20:41:10.676Z,44.17
2018-12-02T20:43:39.878Z,39.37
2018-12-02T20:46:09.163Z,37.40
2018-12-02T20:48:38.425Z,33.97
2018-12-02T20:51:07.672Z,36.30
2018-12-02T20:53:36.781Z,61.20
2018-12-02T20:56:06.125Z,47.70
2018-12-02T20:58:35.343Z,48.97
2018-12-02T21:01:04.668Z,56.80
2018-12-02T21:03:37.856Z,49.83
2018-12-02T21:06:12.904Z,49.73
2018-12-02T21:08:42.288Z,48.97
2018-12-02T21:11:11.501Z,46.37
2018-12-02T21:13:40.772Z,44.40
2018-12-02T21:16:10.133Z,42.80
2018-12-02T21:18:39.285Z,41.83
2018-12-02T21:21:08.376Z,47.03
2018-12-02T21:23:37.596Z,42.90
2018-12-02T21:26:08.654Z,39.10
2018-12-02T21:28:38.600Z,40.03
2018-12-02T21:31:07.925Z,42.67
2018-12-02T21:33:37.229Z,42.63
2018-12-02T21:36:07.100Z,45.47
2018-12-02T21:38:36.462Z,43.20
2018-12-02T21:41:06.003Z,51.33
2018-12-02T21:43:35.292Z,58.73
2018-12-02T21:46:04.544Z,50.17
2018-12-02T21:48:33.765Z,51.40
2018-12-02T21:51:03.056Z,53.97
2018-12-02T21:53:32.266Z,52.87
2018-12-02T21:56:01.345Z,53.23
2018-12-02T21:58:30.854Z,54.37
2018-12-02T22:01:05.084Z,74.10
2018-12-02T22:03:34.200Z,72.93
2018-12-02T22:06:03.472Z,69.50
2018-12-02T22:08:32.554Z,70.87
2018-12-02T22:11:01.925Z,73.43
2018-12-02T22:13:31.144Z,94.00
2018-12-02T22:16:00.452Z,96.97
2018-12-02T22:18:30.169Z,92.87
2018-12-02T22:20:59.381Z,94.10
2018-12-02T22:23:28.572Z,95.00
2018-12-02T22:25:57.813Z,113.87
2018-12-02T22:28:26.977Z,155.37
2018-12-02T22:30:56.048Z,197.53
2018-12-02T22:33:25.188Z,221.07
2018-12-02T22:35:54.352Z,197.20
2018-12-02T22:38:23.441Z,182.73
2018-12-02T22:40:52.706Z,172.13
2018-12-02T22:43:21.930Z,161.30
2018-12-02T22:45:51.128Z,155.60
2018-12-02T22:48:20.466Z,145.73
2018-12-02T22:50:49.732Z,154.63
2018-12-02T22:53:18.853Z,154.93
2018-12-02T22:55:48.056Z,148.80
2018-12-02T22:58:17.247Z,144.57
2018-12-02T23:00:51.879Z,144.33
2018-12-02T23:03:21.072Z,141.57
2018-12-02T23:05:50.362Z,131.37
2018-12-02T23:08:19.811Z,131.67
2018-12-02T23:10:48.972Z,130.27
2018-12-02T23:13:18.035Z,128.60
2018-12-02T23:15:47.403Z,131.93
2018-12-02T23:18:16.692Z,141.53
2018-12-02T23:20:45.941Z,148.33
2018-12-02T23:23:15.301Z,145.20
2018-12-02T23:25:44.555Z,142.80
2018-12-02T23:28:13.756Z,138.97
2018-12-02T23:30:42.993Z,140.87
2018-12-02T23:33:12.143Z,138.93
2018-12-02T23:35:41.230Z,150.60
2018-12-02T23:38:10.688Z,145.87
2018-12-02T23:40:40.033Z,136.40
2018-12-02T23:43:09.336Z,130.47
2018-12-02T23:45:38.784Z,128.83
2018-12-02T23:48:07.940Z,146.37
2018-12-02T23:50:37.232Z,132.90
2018-12-02T23:53:07.485Z,121.67
2018-12-02T23:55:36.673Z,107.67
2018-12-02T23:58:05.860Z,96.00
